Friday, July 25, 2014
17:30 UTC
  |  Log In   |  Register Free
Airport Search:

Madison Airport
(I39)

Madison Airport Diagram
No Airport Diagram Available

FAA data valid effective July 24, 2014 until September 18, 2014 (unless otherwise noted).

 
 
 
 
 
 
 
 
 
 
 
 
 
 

Current Aviation Weather for Madison Airport (I39)

The most recent METAR observation for KDVK was updated at: 1635 UTC
METAR Summary (Translated METAR)
KDVK
251635Z AUTO 00000KT 10SM SCT042 24/14 A3011 RMK AO2
KLEX
(28.6 nm NE from KDVK)
251554Z 00000KT 10SM CLR 24/12 A3010 RMK AO2 SLP184 T02440122
TAF Summary (Translated TAF)
KLEX
(28.6 nm NE from KDVK)
251120Z 2512/2612 VRB04KT P6SM SCT250
KSME
(32.3 nm SE from KDVK)
251521Z 2515/2612 VRB03KT P6SM BKN004 OVC010 FM251600 VRB05KT P6SM SCT007 BKN012 FM251630 VRB05KT P6SM SCT020 FM260700 VRB03KT 3SM BR SCT100
  Airport Weather Conditions for I39

Current weather conditions are
not available for I39


The nearest NOAA weather station
is at DVK, (21 nm SW from I39)
  
 Current Weather at DVK
77° F
Overcast
North winds at 0.0 mph
DVK NOAA Radar

Pressure: 30.10 in
Humidity: 47%
Wind: Calm
Dew Point: 55.4°F
Visibility: 10.00 mi


Airport Weather Forecast for I39

Translated METAR and TAF for KDVK
Translated METAR for KDVK (1723 UTC 25 July 2014)
found at http://aviationweather.gov/adds/metars/
 
METAR text: KDVK 251715Z AUTO 00000KT 10SM SCT042 23/13 A3010 RMK AO2
Conditions at: KDVK (DANVILLE , KY, US) observed 1715 UTC 25 July 2014
Temperature: 23.0°C (73°F)
Dewpoint: 13.0°C (55°F) [RH = 53%]
Pressure (altimeter): 30.10 inches Hg (1019.4 mb)
Winds: calm
Visibility: 10 or more miles (16+ km)
Ceiling: at least 12,000 feet AGL
Clouds: scattered clouds at 4200 feet AGL
Weather: automated observation with no human augmentation;
there may or may not be significant weather present at this time
Translated TAF for KDVK

There is no translated TAF available for this airport

Find All Airport Services Find A Hotel Find A Rental Car Find A Golf Course Find A Restaurant $100 Hamburger



FBO's on the Field
FBO Company Facility Photos Services Transportation Aviation Fuel Prices: Prices include tax
Catering Weather Repair Courtesy Rental Type 100LL JetA JetA+ MOGAS 8087
 
Eastern Kentucky University

This FBO has not yet been rated
FS:Shell
Last Updated: Jul-21
Login to update fuel prices
SS:
Contact Eastern Kentucky UniversityMore FBO Information
 
Add another FBO Facility Photos Catering Weather Repair Courtesy Rental Type 100LL JetA JetA+ MOGAS 8087
Services Transportation Aviation Fuel Prices: Prices include tax


GlobalAir.com Airport Resource Center model-print
model-print
model-print
model-print